Time;durP1;ratioP1;P1;durP2;ratioP2;P2;SDS_P1;SDS_P2;PMS_P1;PMS_P2;Temp;Humidity;BMP_temperature;BMP_pressure;BME280_temperature;BME280_humidity;BME280_pressure;Samples;Min_cycle;Max_cycle;Signal;HPM_P1;HPM_P2
2023/07/16 00:01:33;;;;;;;5.13;2.25;;;;;;;16.46;94.91;100841.47;5058790;28;20070;-50
2023/07/16 00:03:58;;;;;;;5.63;2.40;;;;;;;16.43;95.20;100846.31;5059722;28;20452;-51
2023/07/16 00:06:23;;;;;;;10.55;2.60;;;;;;;16.39;95.85;100842.28;5059936;28;20052;-52
2023/07/16 00:08:48;;;;;;;7.30;2.72;;;;;;;16.30;96.13;100845.88;5060305;28;20027;-51
2023/07/16 00:11:14;;;;;;;8.48;2.70;;;;;;;16.28;94.96;100843.34;5056481;28;20059;-51
2023/07/16 00:13:45;;;;;;;7.90;2.35;;;;;;;16.23;95.21;100846.50;5059441;28;20029;-51
2023/07/16 00:16:11;;;;;;;6.65;2.70;;;;;;;16.12;95.36;100844.06;5058289;28;20033;-54
2023/07/16 00:18:36;;;;;;;6.65;2.30;;;;;;;16.13;95.51;100843.06;5062555;28;20024;-54
2023/07/16 00:21:01;;;;;;;7.32;2.60;;;;;;;16.11;95.16;100846.91;5061925;28;20482;-53
2023/07/16 00:23:27;;;;;;;7.30;2.50;;;;;;;16.09;96.29;100850.56;5057890;28;20065;-54
2023/07/16 00:25:52;;;;;;;8.50;2.58;;;;;;;16.01;95.48;100842.44;5062781;28;20024;-54
2023/07/16 00:28:17;;;;;;;9.05;2.90;;;;;;;15.99;96.51;100849.81;5062372;28;20701;-52
2023/07/16 00:30:43;;;;;;;10.77;2.40;;;;;;;15.97;96.73;100851.81;5061444;28;20104;-54
2023/07/16 00:33:08;;;;;;;6.78;2.70;;;;;;;15.93;97.08;100852.25;5058168;28;20506;-53
2023/07/16 00:35:33;;;;;;;8.40;2.70;;;;;;;15.89;95.80;100844.53;5060961;28;20035;-52
2023/07/16 00:37:58;;;;;;;5.53;2.28;;;;;;;15.89;96.25;100849.88;5060187;28;20382;-51
2023/07/16 00:40:24;;;;;;;8.18;2.50;;;;;;;15.88;97.34;100852.69;5059661;28;20485;-53
2023/07/16 00:42:49;;;;;;;10.15;3.10;;;;;;;15.84;95.85;100857.53;5056838;28;20025;-52
2023/07/16 00:45:14;;;;;;;7.70;2.53;;;;;;;15.86;96.93;100855.53;5060298;28;20082;-51
2023/07/16 00:47:42;;;;;;;9.88;2.50;;;;;;;15.84;96.47;100851.34;5058497;28;20061;-52
2023/07/16 00:50:09;;;;;;;8.75;3.05;;;;;;;15.79;97.87;100843.75;5057382;28;20065;-55
2023/07/16 00:52:35;;;;;;;6.88;2.65;;;;;;;15.73;96.72;100834.44;5060567;28;20073;-52
2023/07/16 00:55:00;;;;;;;7.03;2.40;;;;;;;15.79;96.98;100848.28;5060793;28;20432;-51
2023/07/16 00:57:25;;;;;;;8.18;2.70;;;;;;;15.71;97.81;100851.66;5058249;28;20037;-55
2023/07/16 00:59:51;;;;;;;6.88;2.72;;;;;;;15.70;97.48;100847.28;5062360;28;20081;-52
2023/07/16 01:02:16;;;;;;;11.48;2.83;;;;;;;15.66;97.99;100848.59;5060739;28;20119;-52
2023/07/16 01:04:42;;;;;;;7.72;2.95;;;;;;;15.62;99.36;100848.06;5062269;28;20103;-52
2023/07/16 01:07:10;;;;;;;9.05;2.70;;;;;;;15.61;98.08;100851.72;5056343;28;20123;-52
2023/07/16 01:09:41;;;;;;;5.40;2.58;;;;;;;15.57;99.14;100847.69;5058028;28;20033;-52
2023/07/16 01:12:07;;;;;;;10.48;3.17;;;;;;;15.59;98.94;100853.72;5059671;28;20035;-52
2023/07/16 01:14:33;;;;;;;11.70;3.22;;;;;;;15.49;98.59;100848.41;5060699;28;20032;-52
2023/07/16 01:17:01;;;;;;;9.90;3.30;;;;;;;15.54;98.89;100853.31;5058591;28;20020;-52
2023/07/16 01:19:27;;;;;;;9.10;3.25;;;;;;;15.54;98.14;100856.00;5057363;28;20098;-51
2023/07/16 01:22:01;;;;;;;10.15;3.20;;;;;;;15.52;99.42;100852.59;5058582;28;20474;-52
2023/07/16 01:24:45;;;;;;;7.90;2.90;;;;;;;15.54;98.76;100848.81;5055615;28;20043;-52
2023/07/16 01:27:32;;;;;;;10.65;3.65;;;;;;;15.56;100.00;100855.84;5058242;28;20040;-51
2023/07/16 01:30:11;;;;;;;9.57;3.35;;;;;;;15.46;99.09;100840.69;5058783;28;20048;-52
2023/07/16 01:32:37;;;;;;;;;;;;;;;15.61;96.87;100854.41;5056277;28;20045;-51
2023/07/16 01:35:04;;;;;;;5.93;2.83;;;;;;;15.53;100.00;100854.31;5057850;28;19912;-51
2023/07/16 01:37:29;;;;;;;6.90;3.08;;;;;;;15.47;99.87;100845.06;5061778;28;20095;-53
2023/07/16 01:39:55;;;;;;;8.38;3.00;;;;;;;15.42;100.00;100843.78;5060775;28;20497;-51
2023/07/16 01:42:20;;;;;;;7.82;3.00;;;;;;;15.45;100.00;100846.19;5058239;28;20036;-54
2023/07/16 01:44:46;;;;;;;7.53;2.90;;;;;;;15.42;100.00;100852.69;5062116;28;20109;-52
2023/07/16 01:47:15;;;;;;;10.10;3.38;;;;;;;15.33;100.00;100840.19;5059151;28;20029;-52
2023/07/16 01:49:44;;;;;;;5.47;3.03;;;;;;;15.37;100.00;100849.63;5065014;28;20111;-51
2023/07/16 01:52:09;;;;;;;;;;;;;;;15.50;99.13;100855.47;5057686;28;20033;-52
2023/07/16 01:54:35;;;;;;;6.63;3.05;;;;;;;15.37;100.00;100849.63;5061395;28;19943;-52
2023/07/16 01:57:01;;;;;;;5.20;3.03;;;;;;;15.33;100.00;100843.69;5061137;28;20033;-51
2023/07/16 01:59:26;;;;;;;8.30;3.50;;;;;;;15.32;100.00;100839.34;5061126;28;20485;-51
2023/07/16 02:01:52;;;;;;;5.72;3.10;;;;;;;15.30;100.00;100840.47;5056121;28;20055;-51
2023/07/16 02:04:17;;;;;;;7.70;3.10;;;;;;;15.30;100.00;100849.34;5059831;28;20028;-51
2023/07/16 02:06:42;;;;;;;9.20;3.38;;;;;;;15.30;100.00;100841.31;5055298;28;20032;-52
2023/07/16 02:09:08;;;;;;;5.35;3.03;;;;;;;15.29;100.00;100845.00;5057284;28;20025;-51
2023/07/16 02:11:33;;;;;;;9.98;3.22;;;;;;;15.30;100.00;100843.16;5054426;28;20021;-53
2023/07/16 02:13:59;;;;;;;5.80;3.60;;;;;;;15.30;100.00;100848.50;5056473;28;20021;-52
2023/07/16 02:16:25;;;;;;;10.57;3.42;;;;;;;15.33;100.00;100848.22;5058852;28;20024;-52
2023/07/16 02:18:50;;;;;;;8.43;3.55;;;;;;;15.32;100.00;100847.38;5058075;28;20482;-52
2023/07/16 02:21:15;;;;;;;5.65;3.25;;;;;;;15.32;100.00;100851.88;5064169;28;20108;-51
2023/07/16 02:23:41;;;;;;;7.22;3.45;;;;;;;15.32;100.00;100855.41;5058849;28;20037;-51
2023/07/16 02:26:06;;;;;;;6.93;3.50;;;;;;;15.33;100.00;100858.91;5062525;28;20527;-51
2023/07/16 02:28:31;;;;;;;9.27;3.55;;;;;;;15.32;100.00;100858.09;5060420;28;20049;-51
2023/07/16 02:30:58;;;;;;;9.75;3.47;;;;;;;15.32;100.00;100855.41;5061376;28;20111;-51
2023/07/16 02:33:23;;;;;;;9.05;3.58;;;;;;;15.32;100.00;100860.75;5062459;28;20036;-51
2023/07/16 02:35:51;;;;;;;8.23;3.40;;;;;;;15.31;100.00;100867.09;5059369;28;20029;-51
2023/07/16 02:38:16;;;;;;;11.77;3.60;;;;;;;15.34;100.00;100865.97;5060160;28;20074;-51
2023/07/16 02:40:46;;;;;;;6.65;3.65;;;;;;;15.36;100.00;100869.34;5060663;28;20028;-51
2023/07/16 02:43:12;;;;;;;7.25;3.25;;;;;;;15.32;100.00;100860.75;5064204;28;20093;-52
2023/07/16 02:45:38;;;;;;;7.45;3.65;;;;;;;15.32;100.00;100866.13;5062109;28;20033;-52
2023/07/16 02:48:04;;;;;;;7.53;3.30;;;;;;;15.33;100.00;100872.31;5066460;28;20052;-52
2023/07/16 02:50:30;;;;;;;9.25;3.70;;;;;;;15.32;100.00;100863.44;5061198;28;20075;-54
2023/07/16 02:52:55;;;;;;;10.02;3.83;;;;;;;15.30;100.00;100860.03;5062590;28;20029;-51
2023/07/16 02:55:20;;;;;;;10.07;3.53;;;;;;;15.30;100.00;100877.94;5067683;28;20485;-51
2023/07/16 02:57:46;;;;;;;10.63;3.22;;;;;;;15.28;100.00;100883.44;5060628;28;20119;-51
2023/07/16 03:00:11;;;;;;;6.63;3.33;;;;;;;15.27;100.00;100871.06;5061068;28;20466;-51
2023/07/16 03:02:37;;;;;;;10.30;3.67;;;;;;;15.26;100.00;100882.75;5061036;28;20021;-51
2023/07/16 03:05:03;;;;;;;7.25;3.35;;;;;;;15.25;100.00;100878.38;5062633;28;20370;-51
2023/07/16 03:07:28;;;;;;;8.75;3.88;;;;;;;15.24;100.00;100881.19;5061436;28;20371;-51
2023/07/16 03:09:53;;;;;;;7.57;3.88;;;;;;;15.21;100.00;100877.00;5063332;28;20107;-50
2023/07/16 03:12:19;;;;;;;6.05;3.22;;;;;;;15.18;100.00;100885.31;5061634;28;20036;-51
2023/07/16 03:14:44;;;;;;;9.07;3.85;;;;;;;15.16;100.00;100887.31;5061802;28;20099;-53
2023/07/16 03:17:09;;;;;;;8.93;3.58;;;;;;;15.13;100.00;100892.94;5059730;28;20048;-53
2023/07/16 03:19:35;;;;;;;9.45;3.60;;;;;;;15.09;100.00;100900.41;5060424;28;20378;-52
2023/07/16 03:22:00;;;;;;;8.52;3.58;;;;;;;15.08;100.00;100895.22;5060160;28;20028;-51
2023/07/16 03:24:25;;;;;;;8.48;3.55;;;;;;;15.03;100.00;100898.31;5061861;28;20384;-51
2023/07/16 03:26:51;;;;;;;8.75;3.90;;;;;;;15.01;100.00;100896.78;5059505;28;20028;-51
2023/07/16 03:29:16;;;;;;;11.50;4.75;;;;;;;14.96;100.00;100902.56;5064262;28;20473;-51
2023/07/16 03:31:41;;;;;;;7.15;3.70;;;;;;;14.95;100.00;100904.41;5060953;28;20482;-51
2023/07/16 03:34:07;;;;;;;9.80;4.35;;;;;;;14.90;100.00;100912.00;5059835;28;20025;-53
2023/07/16 03:36:32;;;;;;;7.20;4.30;;;;;;;14.87;100.00;100912.31;5061676;28;20064;-51
2023/07/16 03:38:57;;;;;;;11.88;4.25;;;;;;;14.85;100.00;100908.91;5057255;28;20104;-51
2023/07/16 03:41:22;;;;;;;14.13;4.80;;;;;;;14.83;100.00;100908.22;5059659;28;20053;-51
2023/07/16 03:43:48;;;;;;;11.68;4.30;;;;;;;14.81;100.00;100912.88;5063369;28;20135;-50
2023/07/16 03:46:13;;;;;;;10.70;4.13;;;;;;;14.75;99.62;100919.63;5061447;28;20029;-51
2023/07/16 03:48:38;;;;;;;8.50;4.22;;;;;;;14.72;100.00;100914.59;5062513;28;20048;-51
2023/07/16 03:51:04;;;;;;;11.82;4.63;;;;;;;14.70;100.00;100918.38;5058130;28;20030;-51
2023/07/16 03:53:29;;;;;;;11.23;4.32;;;;;;;14.66;99.85;100920.50;5063070;28;20033;-51
2023/07/16 03:55:55;;;;;;;12.35;4.22;;;;;;;14.63;100.00;100926.13;5057191;28;20452;-51
2023/07/16 03:58:20;;;;;;;11.38;4.32;;;;;;;14.60;100.00;100927.25;5058466;28;20047;-50
2023/07/16 04:00:45;;;;;;;10.30;4.05;;;;;;;14.59;100.00;100935.41;5061549;28;20029;-51
2023/07/16 04:03:11;;;;;;;12.02;4.07;;;;;;;14.56;99.41;100930.31;5061520;28;20530;-51
2023/07/16 04:05:36;;;;;;;8.18;4.07;;;;;;;14.54;99.68;100934.97;5065395;28;20040;-53
2023/07/16 04:08:01;;;;;;;13.05;4.50;;;;;;;14.51;99.47;100941.44;5066229;28;20077;-54
2023/07/16 04:10:27;;;;;;;13.23;4.60;;;;;;;14.51;99.28;100937.91;5063210;28;20024;-52
2023/07/16 04:12:52;;;;;;;9.98;4.22;;;;;;;14.50;99.07;100937.06;5060140;28;20367;-50
2023/07/16 04:15:17;;;;;;;15.68;4.30;;;;;;;14.48;96.87;100946.22;5059866;28;20033;-51
2023/07/16 04:17:43;;;;;;;8.52;4.28;;;;;;;14.49;98.16;100953.22;5056441;28;20111;-51
2023/07/16 04:20:08;;;;;;;9.45;4.63;;;;;;;14.47;97.78;100955.19;5064170;28;20029;-51
2023/07/16 04:22:34;;;;;;;13.77;4.60;;;;;;;14.46;96.55;100964.22;5062133;28;20035;-51
2023/07/16 04:25:00;;;;;;;14.98;5.47;;;;;;;14.43;98.19;100962.66;5059290;28;20033;-50
2023/07/16 04:27:25;;;;;;;6.05;4.50;;;;;;;14.41;97.38;100962.81;5060770;28;20461;-50
2023/07/16 04:29:50;;;;;;;11.52;4.55;;;;;;;14.43;95.77;100976.84;5058570;28;20047;-50
2023/07/16 04:32:16;;;;;;;13.77;5.13;;;;;;;14.44;97.44;100975.88;5060494;28;20040;-51
2023/07/16 04:34:41;;;;;;;10.55;4.70;;;;;;;14.43;96.28;100968.84;5056702;28;20067;-51
2023/07/16 04:37:06;;;;;;;12.35;4.95;;;;;;;14.45;96.52;100979.41;5062537;28;20024;-53
2023/07/16 04:39:31;;;;;;;12.63;4.93;;;;;;;14.46;97.85;100986.44;5056340;28;20029;-53
2023/07/16 04:41:57;;;;;;;11.18;4.47;;;;;;;14.47;96.82;100988.13;5062513;28;20028;-52
2023/07/16 04:44:22;;;;;;;11.95;5.10;;;;;;;14.47;96.75;100984.59;5064042;28;20089;-52
2023/07/16 04:46:47;;;;;;;12.38;5.10;;;;;;;14.47;97.15;100990.81;5058943;28;20025;-51
2023/07/16 04:49:13;;;;;;;9.77;5.28;;;;;;;14.48;97.22;100987.13;5061826;28;20028;-51
2023/07/16 04:51:38;;;;;;;11.18;5.35;;;;;;;14.49;96.67;101006.69;5061622;28;20020;-53
2023/07/16 04:54:03;;;;;;;11.32;5.07;;;;;;;14.54;95.38;100996.44;5056490;28;20371;-54
2023/07/16 04:56:29;;;;;;;11.05;5.45;;;;;;;14.56;96.22;101006.00;5057845;28;20024;-52
2023/07/16 04:58:54;;;;;;;12.73;5.07;;;;;;;14.60;95.77;100999.44;5063169;28;20466;-52
2023/07/16 05:01:20;;;;;;;12.38;5.50;;;;;;;14.67;95.94;101002.41;5056018;28;20047;-51
2023/07/16 05:03:45;;;;;;;12.23;5.13;;;;;;;14.70;95.24;101007.44;5062282;28;20049;-52
2023/07/16 05:06:11;;;;;;;13.90;5.35;;;;;;;14.78;95.97;101006.75;5057386;28;20090;-51
2023/07/16 05:08:36;;;;;;;13.38;5.53;;;;;;;14.82;94.38;101002.78;5057563;28;20052;-51
2023/07/16 05:11:02;;;;;;;12.48;5.68;;;;;;;14.86;95.75;101004.19;5063599;28;20028;-52
2023/07/16 05:13:27;;;;;;;15.73;5.60;;;;;;;14.91;91.73;100999.28;5057757;28;20043;-51
2023/07/16 05:15:53;;;;;;;11.20;5.05;;;;;;;14.95;92.02;101005.19;5059024;28;20055;-51
2023/07/16 05:18:18;;;;;;;12.75;5.47;;;;;;;15.00;93.78;101002.91;5055094;28;20179;-52
2023/07/16 05:20:46;;;;;;;10.43;5.32;;;;;;;15.02;91.94;101011.66;5061237;28;20071;-51
2023/07/16 05:23:12;;;;;;;14.05;5.32;;;;;;;15.06;91.72;101012.22;5058028;28;20031;-53
2023/07/16 05:25:37;;;;;;;9.65;5.30;;;;;;;15.06;90.59;101009.53;5058647;28;20036;-51
2023/07/16 05:28:03;;;;;;;12.63;5.18;;;;;;;15.08;91.43;101020.94;5056773;28;20025;-51
2023/07/16 05:30:28;;;;;;;12.18;5.50;;;;;;;15.12;89.78;101020.53;5060443;28;20025;-53
2023/07/16 05:32:53;;;;;;;14.65;6.13;;;;;;;15.16;90.42;101019.22;5059685;28;20122;-51
2023/07/16 05:35:18;;;;;;;15.98;5.78;;;;;;;15.26;90.03;101016.53;5057191;28;20497;-52
2023/07/16 05:37:44;;;;;;;17.17;5.95;;;;;;;15.35;90.09;101012.16;5058263;28;20024;-53
2023/07/16 05:40:09;;;;;;;9.30;5.40;;;;;;;15.48;88.00;101018.03;5057896;28;20021;-50
2023/07/16 05:42:35;;;;;;;12.85;5.40;;;;;;;15.62;87.37;101022.09;5056968;28;20495;-50
2023/07/16 05:45:01;;;;;;;11.85;5.50;;;;;;;15.81;86.69;101033.75;5054883;28;20432;-51
2023/07/16 05:47:26;;;;;;;15.10;5.82;;;;;;;15.96;87.14;101031.44;5060676;28;20064;-54
2023/07/16 05:49:51;;;;;;;14.27;5.70;;;;;;;16.06;86.27;101033.06;5060112;28;20025;-51
2023/07/16 05:52:17;;;;;;;11.50;5.88;;;;;;;16.21;86.13;101025.38;5058226;28;20033;-51
2023/07/16 05:54:43;;;;;;;16.55;6.00;;;;;;;16.34;86.42;101027.69;5059847;28;20036;-51
2023/07/16 05:57:09;;;;;;;15.68;5.78;;;;;;;16.51;81.95;101041.28;5062081;28;20029;-50
2023/07/16 05:59:36;;;;;;;14.90;6.10;;;;;;;16.59;80.60;101042.19;5063575;28;20035;-53
2023/07/16 06:02:01;;;;;;;11.73;6.07;;;;;;;16.74;83.69;101041.69;5060701;28;20098;-52
2023/07/16 06:04:27;;;;;;;13.88;6.03;;;;;;;16.86;81.14;101050.38;5061117;28;20047;-51
2023/07/16 06:06:52;;;;;;;10.55;5.80;;;;;;;17.00;82.45;101050.66;5062084;28;20025;-52
2023/07/16 06:09:17;;;;;;;13.67;6.13;;;;;;;17.14;79.16;101053.78;5067299;28;20023;-53
2023/07/16 06:11:46;;;;;;;10.80;5.53;;;;;;;17.29;81.40;101052.22;5060529;28;20270;-52
2023/07/16 06:14:11;;;;;;;11.65;5.40;;;;;;;17.45;78.84;101056.84;5062876;28;20031;-53
2023/07/16 06:16:36;;;;;;;13.80;5.90;;;;;;;17.65;78.64;101057.50;5059205;28;20029;-52
2023/07/16 06:19:02;;;;;;;10.25;5.88;;;;;;;17.79;76.73;101066.81;5063082;28;20042;-51
2023/07/16 06:21:27;;;;;;;12.23;5.47;;;;;;;17.82;75.84;101073.69;5055559;28;20047;-53
2023/07/16 06:23:52;;;;;;;11.00;5.80;;;;;;;17.84;74.59;101064.50;5061041;28;20439;-53
2023/07/16 06:26:18;;;;;;;16.10;6.18;;;;;;;18.04;75.92;101066.97;5058116;28;20037;-53
2023/07/16 06:28:43;;;;;;;11.98;5.63;;;;;;;18.19;75.61;101062.66;5061183;28;20029;-52
2023/07/16 06:31:08;;;;;;;13.77;5.60;;;;;;;18.37;75.94;101067.09;5056120;28;20492;-53
2023/07/16 06:33:34;;;;;;;11.32;5.32;;;;;;;18.45;71.86;101056.34;5062182;28;20024;-54
2023/07/16 06:35:59;;;;;;;11.50;6.25;;;;;;;18.59;70.23;101063.78;5058983;28;20112;-51
2023/07/16 06:38:24;;;;;;;13.40;5.60;;;;;;;18.68;70.10;101070.03;5060128;28;20059;-53
2023/07/16 06:40:52;;;;;;;12.80;5.85;;;;;;;18.80;71.89;101076.78;5056736;28;20120;-52
2023/07/16 06:43:18;;;;;;;11.48;5.55;;;;;;;18.96;72.65;101075.16;5058022;28;20051;-51
2023/07/16 06:45:43;;;;;;;15.18;6.00;;;;;;;19.11;69.74;101086.09;5057990;28;20029;-51
2023/07/16 06:48:08;;;;;;;17.15;5.90;;;;;;;19.24;69.90;101086.44;5056279;28;20450;-51
2023/07/16 06:50:34;;;;;;;11.88;6.18;;;;;;;19.49;69.65;101089.94;5057092;28;20045;-52
2023/07/16 06:52:59;;;;;;;10.85;5.57;;;;;;;19.66;68.75;101092.63;5056325;28;20037;-51
2023/07/16 06:55:25;;;;;;;11.68;5.45;;;;;;;19.88;70.00;101081.13;5061761;28;20017;-53
2023/07/16 06:57:50;;;;;;;13.73;5.47;;;;;;;20.10;66.37;101081.41;5059986;28;20029;-54
2023/07/16 07:00:16;;;;;;;9.73;5.93;;;;;;;20.26;66.45;101099.38;5062136;28;20085;-51
2023/07/16 07:02:41;;;;;;;13.65;6.43;;;;;;;20.31;65.68;101100.53;5053173;28;20036;-51
2023/07/16 07:05:07;;;;;;;13.93;6.18;;;;;;;20.42;64.40;101095.78;5056483;28;20068;-51
2023/07/16 07:07:32;;;;;;;9.45;5.70;;;;;;;20.48;62.63;101100.47;5058255;28;20040;-51
2023/07/16 07:09:58;;;;;;;10.70;5.70;;;;;;;20.57;63.83;101120.13;5055635;28;20021;-51
2023/07/16 07:12:23;;;;;;;10.18;5.43;;;;;;;20.63;62.93;101119.47;5051598;28;20489;-52
2023/07/16 07:14:48;;;;;;;11.50;5.63;;;;;;;20.81;62.22;101114.63;5057760;28;20052;-52
2023/07/16 07:17:14;;;;;;;9.40;6.10;;;;;;;20.93;61.60;101108.81;5062929;28;20032;-52
2023/07/16 07:19:40;;;;;;;9.98;5.72;;;;;;;21.05;61.14;101113.63;5055755;28;20044;-51
2023/07/16 07:22:05;;;;;;;13.73;5.35;;;;;;;21.35;62.60;101121.84;5063921;28;20037;-51
2023/07/16 07:24:30;;;;;;;11.40;5.88;;;;;;;21.48;61.49;101118.53;5056897;28;20103;-52
2023/07/16 07:26:56;;;;;;;11.98;6.10;;;;;;;21.59;60.56;101119.97;5061772;28;20382;-53
2023/07/16 07:29:21;;;;;;;10.52;5.70;;;;;;;21.76;59.20;101120.66;5059539;28;20478;-52
2023/07/16 07:31:46;;;;;;;11.57;5.72;;;;;;;21.88;58.42;101131.84;5057450;28;20166;-54
2023/07/16 07:34:12;;;;;;;9.57;5.53;;;;;;;21.97;58.59;101114.53;5055788;28;20024;-51
2023/07/16 07:36:37;;;;;;;11.95;6.03;;;;;;;21.92;57.45;101128.59;5057826;28;20029;-54
2023/07/16 07:39:02;;;;;;;12.68;5.57;;;;;;;21.83;56.68;101126.16;5056903;28;20021;-51
2023/07/16 07:41:27;;;;;;;11.32;5.82;;;;;;;21.75;57.60;101133.34;5056025;28;20543;-51
2023/07/16 07:43:53;;;;;;;14.55;6.03;;;;;;;21.87;57.34;101124.78;5056647;28;20028;-51
2023/07/16 07:46:18;;;;;;;12.07;5.55;;;;;;;21.98;55.48;101129.72;5055799;28;20033;-51
2023/07/16 07:48:43;;;;;;;12.80;5.90;;;;;;;22.20;55.83;101124.41;5062429;28;20029;-51
2023/07/16 07:51:09;;;;;;;16.80;6.32;;;;;;;22.47;57.13;101131.88;5058209;28;20036;-51
2023/07/16 07:53:34;;;;;;;11.60;5.57;;;;;;;22.53;53.59;101127.56;5059813;28;20075;-51
2023/07/16 07:55:59;;;;;;;8.48;5.25;;;;;;;22.50;54.68;101122.53;5060061;28;20028;-51
2023/07/16 07:58:25;;;;;;;11.32;5.63;;;;;;;22.79;55.37;101120.78;5067381;28;20020;-51
2023/07/16 08:00:50;;;;;;;10.57;5.43;;;;;;;22.85;54.69;101122.75;5054878;28;20115;-52
2023/07/16 08:03:15;;;;;;;12.07;5.63;;;;;;;22.97;53.70;101132.03;5060571;28;20017;-52
2023/07/16 08:05:41;;;;;;;9.63;5.28;;;;;;;23.11;55.54;101130.31;5063582;28;20345;-51
2023/07/16 08:08:06;;;;;;;9.82;4.82;;;;;;;23.18;52.81;101123.09;5060357;28;20478;-52
2023/07/16 08:10:31;;;;;;;10.98;5.68;;;;;;;23.52;53.77;101120.69;5058723;28;20032;-52
2023/07/16 08:12:57;;;;;;;9.45;4.97;;;;;;;23.58;54.07;101130.72;5060641;28;20034;-52
2023/07/16 08:15:22;;;;;;;11.10;5.32;;;;;;;23.93;53.55;101125.34;5051334;28;20436;-50
2023/07/16 08:17:48;;;;;;;8.75;5.10;;;;;;;24.19;52.50;101125.50;5054641;28;20052;-51
2023/07/16 08:20:14;;;;;;;10.68;5.00;;;;;;;24.26;49.13;101125.53;5060580;28;20229;-51
2023/07/16 08:22:40;;;;;;;10.38;5.50;;;;;;;24.34;50.18;101130.81;5060537;28;20040;-51
2023/07/16 08:25:06;;;;;;;9.00;4.60;;;;;;;24.35;49.31;101124.34;5061466;28;20032;-53
2023/07/16 08:27:32;;;;;;;8.15;4.55;;;;;;;24.49;49.55;101125.22;5059993;28;20424;-52
2023/07/16 08:29:57;;;;;;;10.88;4.93;;;;;;;24.82;48.87;101132.69;5060989;28;20017;-51
2023/07/16 08:32:23;;;;;;;10.35;4.70;;;;;;;24.78;47.38;101134.16;5060371;28;20037;-51
2023/07/16 08:34:48;;;;;;;10.73;5.07;;;;;;;24.67;47.83;101134.75;5055116;28;20107;-51
2023/07/16 08:37:14;;;;;;;10.32;4.95;;;;;;;24.46;48.36;101136.50;5064726;28;20024;-51
2023/07/16 08:39:39;;;;;;;7.80;4.47;;;;;;;24.40;49.08;101131.91;5059127;28;20064;-52
2023/07/16 08:42:05;;;;;;;8.70;4.32;;;;;;;24.39;49.39;101132.91;5058236;28;20125;-53
2023/07/16 08:44:31;;;;;;;7.88;4.75;;;;;;;24.69;47.95;101130.75;5058840;28;20073;-53
2023/07/16 08:46:57;;;;;;;10.05;4.50;;;;;;;24.56;47.25;101133.44;5054058;28;20115;-52
2023/07/16 08:49:23;;;;;;;11.90;4.90;;;;;;;24.46;48.23;101150.06;5054089;28;20366;-53
2023/07/16 08:51:49;;;;;;;9.50;4.20;;;;;;;24.27;47.97;101145.41;5051004;28;20037;-52
2023/07/16 08:54:17;;;;;;;8.55;4.60;;;;;;;24.26;47.97;101138.28;5058713;28;20016;-51
2023/07/16 08:56:43;;;;;;;12.00;4.57;;;;;;;24.60;48.22;101128.44;5054775;28;20508;-51
2023/07/16 08:59:09;;;;;;;8.02;4.00;;;;;;;24.87;47.97;101146.50;5059425;28;20496;-51
2023/07/16 09:01:36;;;;;;;6.90;4.20;;;;;;;24.96;48.13;101160.72;5061776;28;20397;-51
2023/07/16 09:04:02;;;;;;;9.70;4.40;;;;;;;25.23;48.51;101149.91;5030229;28;20025;-55
2023/07/16 09:06:27;;;;;;;9.20;4.68;;;;;;;25.25;46.57;101158.72;5053219;28;20469;-53
2023/07/16 09:08:52;;;;;;;10.38;4.55;;;;;;;25.07;48.19;101157.41;5055548;28;20435;-54
2023/07/16 09:11:21;;;;;;;7.90;4.57;;;;;;;24.94;46.87;101163.63;5058810;28;20143;-54
2023/07/16 09:13:46;;;;;;;8.75;4.25;;;;;;;24.96;47.50;101163.44;5055887;28;20084;-53
2023/07/16 09:16:12;;;;;;;13.07;4.38;;;;;;;25.18;47.37;101163.28;5060540;28;20654;-51
2023/07/16 09:18:40;;;;;;;7.70;4.80;;;;;;;25.27;46.05;101162.09;5055548;28;20025;-53
2023/07/16 09:21:06;;;;;;;7.35;4.90;;;;;;;25.54;46.37;101164.81;5057240;28;20123;-51
2023/07/16 09:23:32;;;;;;;9.73;4.78;;;;;;;25.48;47.33;101171.94;5060179;28;20432;-51
2023/07/16 09:25:58;;;;;;;7.78;3.88;;;;;;;25.33;45.84;101157.69;5055338;28;20393;-51
2023/07/16 09:28:23;;;;;;;7.22;4.60;;;;;;;25.27;45.87;101167.50;5064282;28;20021;-51
2023/07/16 09:30:50;;;;;;;11.25;4.57;;;;;;;25.20;46.93;101163.94;5058400;28;20032;-51
2023/07/16 09:33:25;;;;;;;7.72;4.38;;;;;;;25.27;47.19;101153.94;5060657;28;20025;-53
2023/07/16 09:35:51;;;;;;;8.45;4.30;;;;;;;25.30;47.43;101170.66;5061513;28;20028;-50
2023/07/16 09:38:17;;;;;;;8.85;4.50;;;;;;;25.26;48.08;101172.13;5068212;28;20365;-51
2023/07/16 09:40:44;;;;;;;9.20;3.97;;;;;;;25.07;46.98;101173.72;5064024;28;20028;-51
2023/07/16 09:43:10;;;;;;;7.63;4.38;;;;;;;24.94;47.46;101182.66;5062486;28;20021;-52
2023/07/16 09:45:36;;;;;;;9.68;4.20;;;;;;;24.85;47.44;101180.34;5061084;28;20021;-54
2023/07/16 09:48:02;;;;;;;8.13;4.03;;;;;;;24.69;47.79;101181.53;5058890;28;20389;-51
2023/07/16 09:50:30;;;;;;;8.82;4.05;;;;;;;24.62;47.39;101181.50;5066653;28;20538;-51
2023/07/16 09:52:56;;;;;;;9.95;4.25;;;;;;;24.42;47.78;101188.72;5060489;28;20091;-50
2023/07/16 09:55:23;;;;;;;11.13;4.00;;;;;;;24.45;47.41;101182.84;5061442;28;20527;-50
2023/07/16 09:57:50;;;;;;;9.10;4.40;;;;;;;24.70;48.33;101194.91;5063818;28;20102;-51
2023/07/16 10:00:17;;;;;;;7.15;4.43;;;;;;;24.74;46.98;101184.47;5056475;28;20043;-51
2023/07/16 10:02:44;;;;;;;7.60;4.30;;;;;;;24.66;47.57;101192.81;5058039;28;20023;-51
2023/07/16 10:05:18;;;;;;;9.70;4.32;;;;;;;24.51;47.32;101196.47;5058877;28;20513;-51
2023/07/16 10:07:50;;;;;;;11.02;4.20;;;;;;;24.44;48.93;101201.03;5060465;28;20133;-51
2023/07/16 10:10:17;;;;;;;9.35;4.45;;;;;;;24.47;47.69;101197.91;5059613;28;20107;-51
2023/07/16 10:12:43;;;;;;;8.40;4.47;;;;;;;24.40;47.85;101197.06;5049224;28;20460;-52
2023/07/16 10:15:11;;;;;;;8.90;4.43;;;;;;;24.48;48.79;101210.47;5058968;28;20532;-51
2023/07/16 10:17:37;;;;;;;10.52;4.32;;;;;;;24.45;48.24;101212.72;5058010;28;20421;-53
2023/07/16 10:20:12;;;;;;;8.02;4.18;;;;;;;24.41;48.04;101215.00;5062092;28;20025;-52
2023/07/16 10:22:43;;;;;;;10.32;4.35;;;;;;;24.26;49.62;101215.13;5054838;28;20480;-51
2023/07/16 10:25:17;;;;;;;7.72;4.95;;;;;;;24.26;48.27;101222.44;5061915;28;20450;-52
2023/07/16 10:27:44;;;;;;;13.70;5.15;;;;;;;24.07;48.75;101219.38;5065129;28;20071;-51
2023/07/16 10:30:10;;;;;;;7.38;4.15;;;;;;;24.16;49.06;101223.63;5062940;28;20104;-51
2023/07/16 10:32:35;;;;;;;8.20;4.10;;;;;;;24.25;49.55;101229.75;5064709;28;20532;-54
2023/07/16 10:35:02;;;;;;;8.18;4.18;;;;;;;24.54;49.51;101217.78;5063235;28;20060;-53
2023/07/16 10:37:28;;;;;;;8.15;4.03;;;;;;;24.75;46.95;101219.59;5059945;28;20021;-51
2023/07/16 10:39:55;;;;;;;7.30;3.97;;;;;;;24.87;47.78;101222.56;5060857;28;20111;-52
2023/07/16 10:42:23;;;;;;;11.30;4.40;;;;;;;24.88;47.32;101217.97;5064201;28;20024;-51
2023/07/16 10:44:51;;;;;;;6.40;3.97;;;;;;;24.83;47.08;101229.47;5056101;28;20109;-52
2023/07/16 10:47:30;;;;;;;8.07;4.17;;;;;;;24.77;47.22;101230.25;5060249;28;20613;-52
2023/07/16 10:49:56;;;;;;;8.27;4.20;;;;;;;24.62;46.76;101224.97;5061454;28;20032;-51
2023/07/16 10:52:22;;;;;;;7.65;3.75;;;;;;;24.62;47.01;101229.56;5058558;28;20025;-51
2023/07/16 10:54:49;;;;;;;9.20;3.65;;;;;;;24.55;46.60;101237.69;5058157;28;20021;-51
2023/07/16 10:57:16;;;;;;;7.15;3.88;;;;;;;24.43;46.63;101253.66;5058447;28;20360;-50
2023/07/16 10:59:43;;;;;;;8.23;3.80;;;;;;;24.38;46.61;101245.25;5059054;28;20020;-52
2023/07/16 11:02:12;;;;;;;9.23;4.20;;;;;;;24.22;46.82;101248.31;5054684;28;20512;-50
2023/07/16 11:04:37;;;;;;;11.20;4.32;;;;;;;24.14;48.15;101246.56;5061199;28;20048;-51
2023/07/16 11:07:13;;;;;;;5.80;3.78;;;;;;;24.16;48.93;101258.91;5057718;28;20125;-51
2023/07/16 11:09:42;;;;;;;8.50;4.20;;;;;;;24.12;48.89;101265.75;5057651;28;20032;-51
2023/07/16 11:12:16;;;;;;;6.10;3.58;;;;;;;24.12;48.59;101256.78;5059497;28;20031;-52
2023/07/16 11:14:46;;;;;;;6.95;4.30;;;;;;;23.99;49.76;101252.91;5050203;28;20290;-51